Time;durP1;ratioP1;P1;durP2;ratioP2;P2;SDS_P1;SDS_P2;PMS_P1;PMS_P2;Temp;Humidity;BMP_temperature;BMP_pressure;BME280_temperature;BME280_humidity;BME280_pressure;Samples;Min_cycle;Max_cycle;Signal;HPM_P1;HPM_P2
2023/03/17 00:00:51;;;;;;;7.90;3.60;;;;;;;3.55;81.59;100805.75;124477;1099;104201;-71
2023/03/17 00:03:29;;;;;;;6.73;3.50;;;;;;;3.54;81.56;100809.16;124559;1099;101929;-71
2023/03/17 00:06:03;;;;;;;8.20;3.72;;;;;;;3.53;81.36;100815.14;124623;1099;104232;-71
2023/03/17 00:08:36;;;;;;;7.27;3.10;;;;;;;3.52;80.92;100803.88;124457;1099;104297;-71
2023/03/17 00:11:10;;;;;;;6.57;3.63;;;;;;;3.52;81.14;100818.52;124312;1099;104258;-72
2023/03/17 00:13:42;;;;;;;8.90;3.80;;;;;;;3.51;82.08;100812.44;124716;1099;104233;-71
2023/03/17 00:16:18;;;;;;;5.37;3.47;;;;;;;3.46;80.67;100803.45;124687;1099;102312;-72
2023/03/17 00:18:52;;;;;;;6.03;3.23;;;;;;;3.43;80.57;100813.61;124623;1099;104268;-71
2023/03/17 00:21:28;;;;;;;6.50;3.60;;;;;;;3.41;81.87;100809.99;124633;1099;104028;-71
2023/03/17 00:24:00;;;;;;;5.87;3.30;;;;;;;3.37;81.33;100813.19;124380;1099;104265;-71
2023/03/17 00:26:32;;;;;;;3.80;2.90;;;;;;;3.38;80.92;100812.38;124242;1099;104190;-71
2023/03/17 00:29:04;;;;;;;6.53;3.37;;;;;;;3.37;81.32;100823.56;124214;1099;104318;-71
2023/03/17 00:31:36;;;;;;;7.07;3.13;;;;;;;3.34;81.09;100812.98;124642;1099;103667;-72
2023/03/17 00:34:11;;;;;;;8.23;3.43;;;;;;;3.32;81.05;100815.46;124667;1099;104243;-75
2023/03/17 00:36:46;;;;;;;7.00;3.40;;;;;;;3.30;81.32;100823.92;124708;1099;104242;-71
2023/03/17 00:39:17;;;;;;;7.17;3.60;;;;;;;3.28;80.57;100833.30;124711;1099;104319;-73
2023/03/17 00:41:48;;;;;;;7.13;3.40;;;;;;;3.27;81.33;100827.19;124596;1098;102481;-72
2023/03/17 00:44:20;;;;;;;7.90;3.67;;;;;;;3.26;81.33;100832.27;124408;1099;104283;-71
2023/03/17 00:46:51;;;;;;;7.93;3.77;;;;;;;3.22;81.23;100829.45;124503;1099;104185;-74
2023/03/17 00:49:25;;;;;;;7.00;3.60;;;;;;;3.19;81.01;100831.83;124205;1099;104182;-71
2023/03/17 00:51:56;;;;;;;5.37;3.40;;;;;;;3.17;81.14;100836.02;124292;1099;104162;-71
2023/03/17 00:54:28;;;;;;;8.57;3.87;;;;;;;3.16;80.41;100841.09;124586;1099;104271;-71
2023/03/17 00:57:02;;;;;;;7.00;3.77;;;;;;;3.13;80.74;100840.88;124628;1099;101915;-71
2023/03/17 00:59:38;;;;;;;12.27;4.03;;;;;;;3.13;80.51;100844.40;124708;1099;104175;-71
2023/03/17 01:02:12;;;;;;;6.77;3.80;;;;;;;3.12;80.89;100844.29;124628;1099;104262;-71
2023/03/17 01:04:44;;;;;;;5.40;3.15;;;;;;;3.09;80.72;100837.18;124432;1099;104182;-73
2023/03/17 01:07:17;;;;;;;8.00;3.47;;;;;;;3.09;81.12;100844.96;124275;1098;101867;-72
2023/03/17 01:09:49;;;;;;;;;;;;;;;3.06;80.49;100843.04;124290;1099;104172;-71
2023/03/17 01:12:21;;;;;;;7.50;3.70;;;;;;;3.04;80.42;100843.74;124809;1099;104227;-71
2023/03/17 01:14:53;;;;;;;8.17;3.90;;;;;;;3.03;80.78;100840.22;124729;1099;104166;-72
2023/03/17 01:17:25;;;;;;;8.30;3.63;;;;;;;3.02;80.66;100853.08;124686;1099;104283;-72
2023/03/17 01:19:57;;;;;;;8.77;4.00;;;;;;;2.99;81.05;100847.67;124692;1099;101941;-71
2023/03/17 01:22:28;;;;;;;8.63;4.30;;;;;;;2.95;80.64;100849.16;124638;1099;104271;-74
2023/03/17 01:25:00;;;;;;;10.57;3.93;;;;;;;2.95;80.85;100861.23;124267;1099;104203;-71
2023/03/17 01:27:36;;;;;;;10.07;4.10;;;;;;;2.90;80.88;100842.75;124218;1099;101891;-71
2023/03/17 01:30:20;;;;;;;10.50;4.13;;;;;;;2.90;80.81;100857.38;124220;1099;102612;-71
2023/03/17 01:32:52;;;;;;;8.80;3.97;;;;;;;2.86;80.56;100862.34;124407;1099;104241;-71
2023/03/17 01:35:24;;;;;;;8.27;4.20;;;;;;;2.86;80.78;100861.45;124630;1099;104251;-71
2023/03/17 01:37:56;;;;;;;8.07;4.37;;;;;;;2.86;80.79;100858.86;124713;1099;104278;-72
2023/03/17 01:40:30;;;;;;;8.87;4.13;;;;;;;2.85;80.69;100863.16;124792;1098;104239;-73
2023/03/17 01:43:18;;;;;;;5.70;3.63;;;;;;;2.84;80.59;100874.30;124701;1099;104344;-71
2023/03/17 01:46:19;;;;;;;12.13;4.40;;;;;;;2.81;80.20;100875.78;124299;1099;104270;-71
2023/03/17 01:48:58;;;;;;;7.00;3.90;;;;;;;2.79;80.82;100867.90;124690;1099;101905;-71
2023/03/17 01:51:36;;;;;;;7.63;4.17;;;;;;;2.77;80.79;100868.56;124221;1102;104226;-70
2023/03/17 01:54:13;;;;;;;10.30;4.50;;;;;;;2.76;80.95;100870.27;124601;1098;104271;-70
2023/03/17 01:56:48;;;;;;;8.83;4.50;;;;;;;2.76;80.96;100880.63;124741;1099;104255;-76
2023/03/17 01:59:23;;;;;;;11.07;4.30;;;;;;;2.77;81.16;100885.00;124714;1098;104185;-73
2023/03/17 02:02:02;;;;;;;9.00;4.37;;;;;;;2.76;81.10;100888.41;124306;1099;104072;-72
2023/03/17 02:04:34;;;;;;;9.30;4.17;;;;;;;2.75;81.22;100891.78;124726;1099;104179;-72
2023/03/17 02:07:06;;;;;;;8.30;3.90;;;;;;;2.74;80.69;100889.07;124705;1099;104297;-70
2023/03/17 02:09:38;;;;;;;8.30;4.20;;;;;;;2.72;80.55;100896.73;124719;1099;104211;-71
2023/03/17 02:12:10;;;;;;;9.67;4.20;;;;;;;2.70;80.51;100901.80;124723;1099;101963;-71
2023/03/17 02:14:42;;;;;;;10.17;4.37;;;;;;;2.71;81.08;100900.10;124266;1099;104369;-70
2023/03/17 02:17:14;;;;;;;9.40;4.00;;;;;;;2.73;81.10;100915.77;124684;1099;104207;-71
2023/03/17 02:19:46;;;;;;;8.13;3.80;;;;;;;2.69;80.75;100910.35;124286;1099;101856;-72
2023/03/17 02:22:19;;;;;;;8.80;4.00;;;;;;;2.68;80.58;100910.23;124896;1099;101955;-71
2023/03/17 02:24:53;;;;;;;7.60;3.80;;;;;;;2.67;80.54;100924.01;124660;1099;104322;-71
2023/03/17 02:27:30;;;;;;;5.13;3.43;;;;;;;2.65;80.40;100921.30;124262;1099;104638;-73
2023/03/17 02:30:01;;;;;;;6.70;3.77;;;;;;;2.63;80.58;100915.11;124665;1099;104172;-71
2023/03/17 02:32:36;;;;;;;7.07;3.77;;;;;;;2.61;80.65;100915.78;124289;1099;101839;-70
2023/03/17 02:35:09;;;;;;;7.57;4.00;;;;;;;2.59;80.18;100922.55;124646;1099;104271;-71
2023/03/17 02:37:42;;;;;;;7.40;3.70;;;;;;;2.59;80.22;100920.84;124262;1099;104236;-70
2023/03/17 02:40:15;;;;;;;8.67;3.80;;;;;;;2.57;80.60;100927.62;124655;1099;101919;-71
2023/03/17 02:42:46;;;;;;;6.83;3.47;;;;;;;2.56;79.96;100930.09;124765;1098;104283;-70
2023/03/17 02:45:18;;;;;;;7.07;4.07;;;;;;;2.56;80.21;100930.09;124659;1099;104272;-71
2023/03/17 02:47:50;;;;;;;5.90;3.47;;;;;;;2.54;79.53;100936.83;124679;1099;104172;-70
2023/03/17 02:50:26;;;;;;;6.23;3.70;;;;;;;2.51;80.24;100933.23;124256;1099;104246;-71
2023/03/17 02:52:57;;;;;;;7.53;4.00;;;;;;;2.52;80.24;100944.48;124670;1099;103972;-70
2023/03/17 02:55:28;;;;;;;7.13;3.60;;;;;;;2.51;79.46;100945.29;124662;1098;104274;-71
2023/03/17 02:58:01;;;;;;;7.73;3.50;;;;;;;2.50;79.87;100946.95;124706;1099;104299;-71
2023/03/17 03:00:33;;;;;;;5.73;3.33;;;;;;;2.49;79.98;100941.66;124671;1099;104258;-71
2023/03/17 03:03:05;;;;;;;7.37;3.30;;;;;;;2.47;79.58;100949.31;124707;1098;104166;-71
2023/03/17 03:05:36;;;;;;;7.70;3.50;;;;;;;2.45;79.88;100953.48;124614;1099;104172;-71
2023/03/17 03:08:07;;;;;;;5.00;3.20;;;;;;;2.47;79.92;100954.50;124692;1098;104175;-70
2023/03/17 03:10:39;;;;;;;7.23;3.40;;;;;;;2.46;80.11;100963.08;124648;1099;104215;-71
2023/03/17 03:13:11;;;;;;;7.40;3.30;;;;;;;2.44;79.81;100956.86;124736;1099;104224;-71
2023/03/17 03:15:44;;;;;;;5.63;3.13;;;;;;;2.43;79.40;100960.25;124700;1099;104335;-70
2023/03/17 03:18:16;;;;;;;8.00;3.40;;;;;;;2.42;79.37;100949.78;124687;1099;104245;-70
2023/03/17 03:20:47;;;;;;;6.80;3.20;;;;;;;2.42;79.67;100958.44;124663;1099;102473;-71
2023/03/17 03:23:18;;;;;;;7.77;3.57;;;;;;;2.43;78.95;100952.48;124746;1099;104191;-70
2023/03/17 03:25:50;;;;;;;7.73;3.30;;;;;;;2.42;78.65;100968.80;124654;1099;104338;-70
2023/03/17 03:28:21;;;;;;;9.77;3.60;;;;;;;2.42;79.35;100957.55;124708;1099;102238;-70
2023/03/17 03:30:52;;;;;;;7.27;3.60;;;;;;;2.41;78.86;100956.63;124626;1099;104219;-70
2023/03/17 03:33:24;;;;;;;10.70;3.40;;;;;;;2.41;79.40;100961.80;124687;1099;101893;-71
2023/03/17 03:35:55;;;;;;;6.13;3.13;;;;;;;2.41;79.30;100959.22;124664;1098;104344;-70
2023/03/17 03:38:27;;;;;;;5.83;2.97;;;;;;;2.43;78.99;100961.92;124730;1099;104165;-71
2023/03/17 03:40:58;;;;;;;5.67;3.10;;;;;;;2.43;78.85;100962.84;124695;1098;104322;-70
2023/03/17 03:43:30;;;;;;;4.70;3.00;;;;;;;2.41;78.40;100971.27;124658;1099;103927;-71
2023/03/17 03:46:01;;;;;;;4.70;2.57;;;;;;;2.38;78.34;100971.93;124639;1099;101864;-70
2023/03/17 03:48:32;;;;;;;5.90;3.07;;;;;;;2.36;78.76;100977.80;124658;1099;104204;-70
2023/03/17 03:51:04;;;;;;;7.47;3.20;;;;;;;2.35;78.52;100976.88;124684;1099;104376;-71
2023/03/17 03:53:35;;;;;;;7.60;3.00;;;;;;;2.32;77.65;100987.92;124693;1097;104307;-71
2023/03/17 03:56:08;;;;;;;8.60;3.00;;;;;;;2.31;78.24;100988.70;124658;1099;104252;-70
2023/03/17 03:58:40;;;;;;;5.53;2.83;;;;;;;2.29;78.47;100981.59;124375;1099;101943;-70
2023/03/17 04:01:12;;;;;;;5.53;2.93;;;;;;;2.28;78.40;100982.39;124699;1099;104172;-71
2023/03/17 04:03:45;;;;;;;7.53;3.20;;;;;;;2.27;78.32;100983.17;124773;1099;104169;-71
2023/03/17 04:06:17;;;;;;;6.80;2.83;;;;;;;2.25;78.56;100993.41;124706;1099;104182;-70
2023/03/17 04:08:48;;;;;;;6.10;2.93;;;;;;;2.26;78.26;100992.64;124701;1098;104264;-73
2023/03/17 04:11:19;;;;;;;6.60;3.17;;;;;;;2.25;78.56;100996.00;124702;1099;101830;-70
2023/03/17 04:13:51;;;;;;;6.23;3.03;;;;;;;2.23;77.71;100999.24;124757;1099;104297;-71
2023/03/17 04:16:22;;;;;;;6.03;3.10;;;;;;;2.22;78.26;101007.82;124750;1099;104326;-71
2023/03/17 04:18:53;;;;;;;5.95;2.90;;;;;;;2.22;77.92;101000.05;124726;1099;104291;-71
2023/03/17 04:21:25;;;;;;;6.40;3.00;;;;;;;2.19;77.99;100998.11;124699;1099;104207;-70
2023/03/17 04:23:56;;;;;;;6.70;3.13;;;;;;;2.16;77.39;101009.13;124725;1099;104230;-71
2023/03/17 04:26:27;;;;;;;6.67;2.73;;;;;;;2.14;77.94;101008.12;124672;1099;104268;-70
2023/03/17 04:28:59;;;;;;;6.67;2.80;;;;;;;2.16;77.98;101011.72;124716;1099;104182;-70
2023/03/17 04:31:30;;;;;;;7.30;3.10;;;;;;;2.15;77.65;101009.01;124720;1098;104280;-72
2023/03/17 04:34:01;;;;;;;13.27;4.33;;;;;;;2.14;77.53;101009.81;124713;1099;102006;-74
2023/03/17 04:36:33;;;;;;;15.00;4.90;;;;;;;2.12;77.23;101011.36;124657;1099;104211;-74
2023/03/17 04:39:05;;;;;;;10.17;3.93;;;;;;;2.12;77.31;101012.28;124744;1099;104277;-71
2023/03/17 04:41:36;;;;;;;11.00;4.17;;;;;;;2.16;77.71;101016.89;124515;1099;104338;-71
2023/03/17 04:44:08;;;;;;;9.13;3.40;;;;;;;2.14;77.32;101017.58;124751;1099;104329;-71
2023/03/17 04:46:39;;;;;;;6.53;3.37;;;;;;;2.14;77.33;101015.89;124300;1099;104210;-70
2023/03/17 04:49:11;;;;;;;5.73;2.90;;;;;;;2.15;77.18;101022.88;124186;1099;104272;-70
2023/03/17 04:51:42;;;;;;;10.40;3.73;;;;;;;2.17;76.86;101033.36;124079;1099;104273;-69
2023/03/17 04:54:15;;;;;;;11.87;3.53;;;;;;;2.15;77.11;101034.90;124229;1099;104195;-70
2023/03/17 04:56:46;;;;;;;8.40;3.33;;;;;;;2.16;77.20;101035.02;124628;1099;104338;-70
2023/03/17 04:59:17;;;;;;;7.17;3.17;;;;;;;2.16;77.11;101045.38;124642;1099;104273;-70
2023/03/17 05:01:48;;;;;;;6.10;3.33;;;;;;;2.18;76.76;101039.42;124618;1099;104194;-70
2023/03/17 05:04:20;;;;;;;6.33;3.27;;;;;;;2.17;76.67;101038.53;124312;1099;104254;-71
2023/03/17 05:06:51;;;;;;;9.97;3.43;;;;;;;2.18;76.13;101047.20;124642;1099;104166;-72
2023/03/17 05:09:22;;;;;;;5.63;2.90;;;;;;;2.15;76.42;101046.19;124325;1099;103648;-72
2023/03/17 05:11:54;;;;;;;6.70;2.80;;;;;;;2.18;76.44;101052.38;124536;1099;101913;-71
2023/03/17 05:14:25;;;;;;;7.53;3.17;;;;;;;2.21;76.42;101057.79;124311;1100;101907;-72
2023/03/17 05:16:56;;;;;;;6.07;3.20;;;;;;;2.19;75.66;101060.27;124558;1099;104180;-72
2023/03/17 05:19:28;;;;;;;8.70;3.30;;;;;;;2.20;76.05;101063.73;124601;1099;102894;-72
2023/03/17 05:21:59;;;;;;;7.57;3.50;;;;;;;2.20;76.12;101063.73;124560;1099;104292;-72
2023/03/17 05:24:30;;;;;;;9.87;3.67;;;;;;;2.18;76.26;101066.21;124555;1099;102319;-72
2023/03/17 05:27:02;;;;;;;7.40;3.30;;;;;;;2.19;75.97;101069.73;124349;1099;102946;-74
2023/03/17 05:29:33;;;;;;;7.73;3.57;;;;;;;2.19;75.88;101067.14;124372;1099;104214;-70
2023/03/17 05:32:08;;;;;;;10.40;3.70;;;;;;;2.17;76.10;101069.61;124294;1099;104204;-69
2023/03/17 05:34:41;;;;;;;10.27;3.63;;;;;;;2.16;75.67;101076.45;124464;1099;104325;-73
2023/03/17 05:37:12;;;;;;;9.67;3.80;;;;;;;2.15;75.74;101073.73;124636;1099;104275;-72
2023/03/17 05:39:44;;;;;;;7.23;3.80;;;;;;;2.15;75.32;101082.43;124878;1099;104172;-72
2023/03/17 05:42:15;;;;;;;9.37;4.00;;;;;;;2.16;76.16;101089.39;125015;1099;102108;-72
2023/03/17 05:44:47;;;;;;;11.13;4.47;;;;;;;2.13;75.26;101089.16;124874;1099;102719;-72
2023/03/17 05:47:18;;;;;;;8.27;3.77;;;;;;;2.16;75.74;101089.39;124958;1099;104108;-71
2023/03/17 05:49:50;;;;;;;9.30;3.50;;;;;;;2.18;75.60;101091.21;124874;1099;104182;-72
2023/03/17 05:52:21;;;;;;;11.43;4.00;;;;;;;2.19;75.89;101088.74;124393;1099;104224;-71
2023/03/17 05:54:53;;;;;;;8.03;3.50;;;;;;;2.19;75.60;101088.74;124440;1099;102594;-72
2023/03/17 05:57:25;;;;;;;7.57;3.40;;;;;;;2.19;75.42;101098.21;124870;1099;101842;-73
2023/03/17 05:59:56;;;;;;;9.80;3.70;;;;;;;2.14;75.38;101095.25;124976;1099;103454;-74
2023/03/17 06:02:27;;;;;;;14.87;3.73;;;;;;;2.12;75.21;101092.55;124951;1098;104223;-71
2023/03/17 06:04:59;;;;;;;11.47;3.77;;;;;;;2.12;75.54;101097.72;125136;1099;104172;-75
2023/03/17 06:07:30;;;;;;;10.13;3.80;;;;;;;2.14;75.08;101095.25;124973;1099;104185;-72
2023/03/17 06:10:02;;;;;;;11.17;3.70;;;;;;;2.22;75.04;101109.70;124692;1099;104224;-77
2023/03/17 06:12:33;;;;;;;10.97;3.60;;;;;;;2.31;75.00;101101.77;124541;1098;104241;-71
2023/03/17 06:15:07;;;;;;;11.03;4.17;;;;;;;2.46;74.97;101099.45;124556;1099;104369;-70
2023/03/17 06:17:38;;;;;;;8.05;3.45;;;;;;;2.65;74.71;101101.77;124617;1099;104197;-71
2023/03/17 06:20:12;;;;;;;14.70;4.03;;;;;;;2.83;74.51;101094.51;124632;1099;104808;-69
2023/03/17 06:22:43;;;;;;;9.23;3.70;;;;;;;3.01;74.65;101092.42;124619;1098;102313;-69
2023/03/17 06:25:17;;;;;;;5.87;3.40;;;;;;;3.21;73.91;101094.81;124630;1099;101978;-70
2023/03/17 06:27:51;;;;;;;10.40;3.45;;;;;;;3.35;73.93;101090.66;124566;1098;104233;-71
2023/03/17 06:30:21;;;;;;;;;;;;;;;3.47;71.38;101095.82;124616;1099;101865;-71
2023/03/17 06:32:58;;;;;;;11.43;3.53;;;;;;;3.59;72.21;101095.83;124528;1099;104208;-70
2023/03/17 06:35:31;;;;;;;10.13;3.60;;;;;;;3.71;72.44;101101.00;124590;1098;104190;-71
2023/03/17 06:38:04;;;;;;;9.27;3.87;;;;;;;3.84;71.84;101082.94;124178;1099;101948;-72
2023/03/17 06:40:35;;;;;;;6.57;3.20;;;;;;;3.96;70.23;101101.10;124423;1098;104236;-73
2023/03/17 06:43:08;;;;;;;10.23;3.40;;;;;;;4.06;71.05;101081.88;124576;1098;102521;-71
2023/03/17 06:45:41;;;;;;;6.00;3.27;;;;;;;4.17;69.64;101091.32;124539;1099;102764;-71
2023/03/17 06:48:18;;;;;;;6.17;2.70;;;;;;;4.28;69.35;101092.97;124600;1098;104211;-72
2023/03/17 06:50:50;;;;;;;7.27;3.33;;;;;;;4.37;69.65;101084.04;124504;1099;104303;-72
2023/03/17 06:53:22;;;;;;;8.60;3.60;;;;;;;4.46;69.50;101098.56;124114;1099;104264;-70
2023/03/17 06:55:53;;;;;;;8.53;3.50;;;;;;;4.52;68.49;101092.91;124631;1098;101823;-71
2023/03/17 06:58:26;;;;;;;9.70;3.33;;;;;;;4.61;68.40;101079.62;124297;1099;101916;-70
2023/03/17 07:00:58;;;;;;;7.83;3.37;;;;;;;4.80;68.01;101095.70;124586;1099;104262;-69
2023/03/17 07:03:31;;;;;;;11.00;3.10;;;;;;;4.92;66.10;101084.32;124638;1099;102297;-70
2023/03/17 07:06:03;;;;;;;8.47;3.07;;;;;;;5.02;66.86;101091.96;124529;1099;104190;-70
2023/03/17 07:08:34;;;;;;;9.43;3.50;;;;;;;5.11;67.21;101089.05;124647;1099;104227;-71
2023/03/17 07:11:06;;;;;;;9.50;3.20;;;;;;;5.19;66.63;101090.49;124537;1099;104283;-69
2023/03/17 07:13:40;;;;;;;8.87;3.10;;;;;;;5.27;65.18;101094.50;124640;1098;104794;-69
2023/03/17 07:16:13;;;;;;;9.40;3.53;;;;;;;5.38;66.80;101075.28;124551;1099;104350;-69
2023/03/17 07:18:43;;;;;;;;;;;;;;;5.48;64.07;101081.98;124550;1099;104171;-70
2023/03/17 07:21:19;;;;;;;10.03;3.13;;;;;;;5.55;62.20;101085.91;124236;1099;104245;-73
2023/03/17 07:23:51;;;;;;;9.37;2.50;;;;;;;5.62;61.16;101103.70;124594;1099;104277;-71
2023/03/17 07:26:22;;;;;;;8.23;2.90;;;;;;;5.71;62.69;101087.80;124610;1099;104251;-72
2023/03/17 07:28:59;;;;;;;9.80;3.30;;;;;;;5.87;64.40;101076.65;124501;1099;104369;-71
2023/03/17 07:31:31;;;;;;;8.17;2.50;;;;;;;5.92;61.20;101099.59;124658;1099;104158;-73
2023/03/17 07:34:02;;;;;;;8.17;3.03;;;;;;;5.97;60.58;101092.11;124880;1099;104256;-72
2023/03/17 07:36:38;;;;;;;5.20;2.63;;;;;;;5.91;59.26;101083.88;124496;1099;104258;-70
2023/03/17 07:39:12;;;;;;;8.80;3.37;;;;;;;6.03;62.81;101092.50;124546;1098;101923;-72
2023/03/17 07:41:42;;;;;;;;;;;;;;;6.13;59.77;101111.32;124610;1098;104322;-71
2023/03/17 07:44:22;;;;;;;9.93;3.00;;;;;;;6.15;60.31;101086.25;124502;1098;104101;-73
2023/03/17 07:47:03;;;;;;;9.87;3.30;;;;;;;6.10;59.37;101083.35;124600;1099;102306;-71
2023/03/17 07:49:38;;;;;;;7.60;3.77;;;;;;;6.17;62.55;101079.42;124184;1099;104313;-71
2023/03/17 07:52:17;;;;;;;6.20;3.27;;;;;;;6.28;61.16;101094.05;124500;1102;105009;-72
2023/03/17 07:54:50;;;;;;;8.77;3.30;;;;;;;6.30;61.61;101090.70;124963;1099;104242;-77
2023/03/17 07:57:23;;;;;;;6.60;3.02;;;;;;;6.43;61.09;101091.47;125531;1099;102424;-79
2023/03/17 07:59:57;;;;;;;9.47;3.40;;;;;;;6.43;60.36;101097.58;125501;1099;102597;-77
2023/03/17 08:02:32;;;;;;;7.67;3.20;;;;;;;6.43;59.91;101109.72;125201;1099;102381;-76
2023/03/17 08:07:50;;;;;;;9.40;3.47;;;;;;;6.48;60.03;101077.00;125031;1099;102360;-72
2023/03/17 08:10:27;;;;;;;11.77;4.87;;;;;;;6.57;60.51;101098.42;125258;1099;103715;-69
2023/03/17 08:12:57;;;;;;;;;;;;;;;6.52;57.97;101085.94;125285;1099;104173;-75
2023/03/17 08:15:30;;;;;;;6.97;3.20;;;;;;;6.57;60.57;101098.42;124638;1099;104242;-72
2023/03/17 08:18:02;;;;;;;8.43;3.20;;;;;;;6.65;59.66;101089.39;124596;1099;102816;-72
2023/03/17 08:20:37;;;;;;;9.10;3.70;;;;;;;6.79;59.66;101092.84;124546;1099;104346;-70
2023/03/17 08:23:13;;;;;;;6.50;3.07;;;;;;;6.85;57.68;101126.20;124635;1099;102398;-74
2023/03/17 08:25:47;;;;;;;9.03;3.00;;;;;;;6.79;57.69;101094.52;124647;1099;104185;-69
2023/03/17 08:28:19;;;;;;;10.73;3.23;;;;;;;6.80;57.32;101086.79;115530;1099;10001794;-74
2023/03/17 08:30:50;;;;;;;8.20;3.73;;;;;;;6.75;56.54;101095.16;124591;1099;104223;-73
2023/03/17 08:33:22;;;;;;;12.43;4.20;;;;;;;6.75;55.30;101087.34;124625;1099;104173;-73
2023/03/17 08:35:54;;;;;;;10.60;4.17;;;;;;;6.80;56.71;101075.47;124537;1098;104366;-72
2023/03/17 08:38:27;;;;;;;9.20;3.87;;;;;;;6.90;58.37;101084.73;125492;1098;104172;-72
2023/03/17 08:41:03;;;;;;;7.87;3.77;;;;;;;6.99;57.65;101061.80;124181;1099;104201;-73
2023/03/17 08:43:43;;;;;;;6.50;2.93;;;;;;;7.12;57.06;101095.65;125899;1098;104409;-72
2023/03/17 08:46:18;;;;;;;8.87;3.40;;;;;;;7.11;56.89;101070.35;124641;1099;104274;-73
2023/03/17 08:48:58;;;;;;;9.20;3.03;;;;;;;7.08;55.78;101093.66;124628;1097;104197;-74
2023/03/17 08:51:37;;;;;;;7.07;3.43;;;;;;;7.12;56.45;101086.90;124604;1099;104241;-74
2023/03/17 08:54:08;;;;;;;8.20;3.43;;;;;;;7.19;56.38;101079.52;124654;1099;104178;-73
2023/03/17 08:56:42;;;;;;;7.20;2.97;;;;;;;7.30;55.62;101077.53;124625;1099;104376;-73
2023/03/17 08:59:14;;;;;;;6.78;2.95;;;;;;;7.31;54.97;101070.63;124597;1099;104262;-73
2023/03/17 09:01:48;;;;;;;5.43;2.60;;;;;;;7.35;53.64;101088.25;124606;1099;104277;-73
2023/03/17 09:04:21;;;;;;;5.53;2.57;;;;;;;7.33;54.58;101074.22;124210;1099;104265;-73
2023/03/17 09:06:53;;;;;;;5.57;2.30;;;;;;;7.35;54.06;101076.12;124646;1099;104169;-75
2023/03/17 09:09:26;;;;;;;4.73;2.43;;;;;;;7.46;53.72;101073.20;124328;1102;104230;-75
2023/03/17 09:12:03;;;;;;;5.90;2.67;;;;;;;7.52;53.76;101084.00;124753;1099;101925;-75
2023/03/17 09:14:44;;;;;;;13.03;2.80;;;;;;;7.59;53.77;101070.49;124719;1099;104223;-74
2023/03/17 09:17:16;;;;;;;6.05;2.50;;;;;;;7.63;53.78;101075.05;124782;1099;104175;-75
2023/03/17 09:19:48;;;;;;;6.23;2.80;;;;;;;7.68;53.54;101080.55;124951;1098;104249;-77
2023/03/17 09:22:19;;;;;;;5.70;2.43;;;;;;;7.76;53.38;101081.90;124310;1099;104348;-73
2023/03/17 09:24:53;;;;;;;6.95;2.55;;;;;;;7.79;53.30;101086.38;124724;1099;104066;-80
2023/03/17 09:27:28;;;;;;;5.10;2.33;;;;;;;7.76;52.41;101087.13;124550;1099;104240;-75
2023/03/17 09:30:03;;;;;;;5.97;3.13;;;;;;;7.77;53.32;101088.91;124625;1098;104175;-74
2023/03/17 09:32:41;;;;;;;4.97;2.37;;;;;;;7.83;51.09;101104.92;124774;1098;102238;-76
2023/03/17 09:35:12;;;;;;;6.70;3.00;;;;;;;7.94;52.75;101081.13;124586;1099;104245;-73
2023/03/17 09:37:45;;;;;;;6.80;2.27;;;;;;;7.93;50.82;101088.04;124675;1099;102080;-74
2023/03/17 09:40:27;;;;;;;4.13;2.30;;;;;;;7.85;49.75;101078.88;124213;1099;102350;-74
2023/03/17 09:43:12;;;;;;;6.17;2.40;;;;;;;7.89;50.76;101092.20;124588;1099;104238;-72
2023/03/17 09:45:48;;;;;;;4.77;2.50;;;;;;;8.03;51.77;101077.29;124637;1099;104237;-72
2023/03/17 09:48:52;;;;;;;6.73;3.20;;;;;;;8.06;50.33;101092.25;124212;1099;104169;-72
2023/03/17 09:51:23;;;;;;;6.50;2.60;;;;;;;8.08;51.64;101074.93;124609;1099;104300;-75
2023/03/17 09:54:02;;;;;;;6.33;2.27;;;;;;;8.09;50.46;101066.29;124651;1099;102051;-73
2023/03/17 09:56:36;;;;;;;5.83;2.57;;;;;;;8.09;50.64;101068.91;124239;1099;102808;-75
2023/03/17 09:59:23;;;;;;;5.90;2.47;;;;;;;8.28;51.55;101070.80;125973;1098;104246;-75
2023/03/17 10:02:32;;;;;;;7.70;2.85;;;;;;;8.46;51.79;101049.97;124647;1098;104242;-79
2023/03/17 10:05:20;;;;;;;6.78;2.50;;;;;;;8.46;48.53;101068.28;124680;1099;104235;-76
2023/03/17 10:08:03;;;;;;;4.67;2.23;;;;;;;8.51;48.90;101074.67;124703;1099;103648;-73
2023/03/17 10:10:46;;;;;;;2.90;1.90;;;;;;;8.40;49.24;101057.49;124332;1099;102361;-79
2023/03/17 10:13:28;;;;;;;3.37;2.13;;;;;;;8.28;45.38;101076.91;125122;1099;104169;-75
2023/03/17 10:16:08;;;;;;;6.93;2.40;;;;;;;8.33;48.73;101061.47;125122;1098;102911;-71
2023/03/17 10:18:46;;;;;;;6.43;2.40;;;;;;;8.49;47.66;101065.83;124840;1099;104214;-77
2023/03/17 10:24:03;;;;;;;4.93;2.40;;;;;;;8.53;47.11;101059.95;125420;1099;102742;-79
2023/03/17 10:26:40;;;;;;;4.47;1.65;;;;;;;8.50;47.17;101057.17;125654;1099;104211;-73
2023/03/17 10:29:27;;;;;;;5.00;1.80;;;;;;;8.57;48.34;101051.46;125279;1099;102642;-78
2023/03/17 10:32:03;;;;;;;4.90;2.30;;;;;;;8.71;47.65;101080.05;124464;1099;101907;-74
2023/03/17 10:34:40;;;;;;;3.73;1.83;;;;;;;8.76;47.91;101060.27;124528;1099;101829;-72
2023/03/17 10:37:18;;;;;;;7.70;2.27;;;;;;;8.86;48.04;101038.97;124595;1099;104323;-74
2023/03/17 10:39:58;;;;;;;3.93;2.00;;;;;;;8.97;47.48;101050.87;124280;1099;104329;-74
2023/03/17 10:42:32;;;;;;;5.63;2.40;;;;;;;9.09;47.01;101036.64;124762;1099;104204;-79
2023/03/17 10:45:14;;;;;;;6.20;2.00;;;;;;;8.94;46.88;101036.75;124637;1099;108917;-72
2023/03/17 10:48:03;;;;;;;4.97;1.67;;;;;;;9.06;45.52;101052.19;124272;1099;101975;-73
2023/03/17 10:50:41;;;;;;;5.20;2.10;;;;;;;9.08;46.02;101050.53;124240;1099;102496;-71
2023/03/17 10:53:26;;;;;;;5.07;2.43;;;;;;;8.90;45.20;101050.52;124613;1099;104220;-74
2023/03/17 10:56:07;;;;;;;3.77;1.80;;;;;;;8.99;45.97;101038.79;124724;1099;101987;-75
2023/03/17 10:58:46;;;;;;;4.37;1.83;;;;;;;9.16;45.87;101042.27;124774;1098;102137;-75
2023/03/17 11:01:23;;;;;;;6.73;1.77;;;;;;;9.11;43.84;101046.34;124322;1099;104220;-75
2023/03/17 11:04:01;;;;;;;4.37;1.80;;;;;;;8.98;44.39;101042.22;124711;1099;104199;-79
2023/03/17 11:06:37;;;;;;;;;;;;;;;9.02;45.44;101030.17;125558;1098;102029;-77
2023/03/17 11:09:18;;;;;;;5.43;1.87;;;;;;;9.17;45.85;101037.91;125535;1099;102510;-74
2023/03/17 11:12:03;;;;;;;4.07;1.70;;;;;;;9.15;43.89;101044.80;124841;1098;104275;-75
2023/03/17 11:14:36;;;;;;;5.23;2.20;;;;;;;9.04;45.23;101030.25;124992;1099;102155;-76
2023/03/17 11:17:18;;;;;;;7.53;2.20;;;;;;;9.03;44.86;101020.63;124715;1098;104172;-77
2023/03/17 11:20:00;;;;;;;2.45;1.75;;;;;;;9.27;44.17;101020.92;126465;1098;102016;-76
2023/03/17 11:22:38;;;;;;;4.53;2.07;;;;;;;9.31;45.47;101022.88;124964;1099;104166;-78
2023/03/17 11:25:18;;;;;;;4.37;2.00;;;;;;;9.39;45.64;101032.00;124917;1099;104182;-76
2023/03/17 11:28:01;;;;;;;4.67;1.83;;;;;;;9.26;44.09;101042.72;124762;1099;104245;-77
2023/03/17 11:30:46;;;;;;;3.67;1.60;;;;;;;9.07;44.29;101033.94;124804;1099;102003;-75
2023/03/17 11:33:33;;;;;;;4.47;1.90;;;;;;;9.12;43.69;101050.77;124782;1099;104288;-76
2023/03/17 11:36:16;;;;;;;3.30;1.77;;;;;;;9.27;44.43;101011.38;124286;1099;118675;-74
2023/03/17 11:39:06;;;;;;;3.13;2.30;;;;;;;9.28;43.60;101038.45;124231;1099;102011;-74
2023/03/17 11:41:52;;;;;;;3.77;1.73;;;;;;;9.12;43.89;101023.70;126026;1098;104182;-75
2023/03/17 11:44:52;;;;;;;3.03;2.00;;;;;;;9.11;44.36;101027.13;124737;1097;104316;-72
2023/03/17 11:47:47;;;;;;;3.37;1.60;;;;;;;9.21;43.69;101021.55;124584;1099;102200;-74
2023/03/17 11:50:30;;;;;;;3.63;1.83;;;;;;;9.20;43.36;101017.12;124465;1099;104248;-80
2023/03/17 11:53:24;;;;;;;3.37;1.77;;;;;;;9.27;43.44;101020.92;124738;1099;102069;-76
2023/03/17 11:56:03;;;;;;;2.73;1.53;;;;;;;9.16;42.47;101012.53;124839;1099;101836;-75